Steep Hollow, Texas
Current Conditions -  °F | °C
As of 2:53 AM on Friday 24 Oct 2014 (Local Time) from KCLL Reporting Station
Clear Clear  
Wind Chill: 62°   Ceiling: Unl
Heat Index: 62°   Visibility: 10mi
Dew Point: 53°   Wind: 5mph
Humidity: 72%   Direction: 110°ESE
Pressure: 30.13"   Gusts: NA
Location:  30.6361°N, 96.3666°W
Report Text: KCLL 240753Z 11004KT 10SM CLR 17/12 A3013 RMK AO2 SLP198 T01670117
Loading
Personal Weather Stations






























Interactive Weather Map
Tropical Storm Tracking
New forecast layout! Learn more

10-Day Weather Forecast

Advertisements
Track Severe Weather on mobile